sensor_id;sensor_type;location;lat;lon;timestamp;P1;durP1;ratioP1;P2;durP2;ratioP2
6422;SDS011;3244;42.708;23.288;2023-06-14T00:01:49;4.75;;;4.43;;
6422;SDS011;3244;42.708;23.288;2023-06-14T00:04:16;7.43;;;4.50;;
6422;SDS011;3244;42.708;23.288;2023-06-14T00:06:44;5.18;;;4.88;;
6422;SDS011;3244;42.708;23.288;2023-06-14T00:09:12;5.68;;;5.28;;
6422;SDS011;3244;42.708;23.288;2023-06-14T00:11:39;5.45;;;5.05;;
6422;SDS011;3244;42.708;23.288;2023-06-14T00:14:06;5.45;;;4.95;;
6422;SDS011;3244;42.708;23.288;2023-06-14T00:16:33;9.75;;;5.38;;
6422;SDS011;3244;42.708;23.288;2023-06-14T00:19:00;5.10;;;4.80;;
6422;SDS011;3244;42.708;23.288;2023-06-14T00:21:28;5.55;;;5.15;;
6422;SDS011;3244;42.708;23.288;2023-06-14T00:23:55;8.05;;;5.15;;
6422;SDS011;3244;42.708;23.288;2023-06-14T00:26:23;6.55;;;5.90;;
6422;SDS011;3244;42.708;23.288;2023-06-14T00:28:51;5.30;;;4.80;;
6422;SDS011;3244;42.708;23.288;2023-06-14T00:31:18;5.65;;;5.25;;
6422;SDS011;3244;42.708;23.288;2023-06-14T00:33:44;5.30;;;5.00;;
6422;SDS011;3244;42.708;23.288;2023-06-14T00:36:11;6.10;;;5.68;;
6422;SDS011;3244;42.708;23.288;2023-06-14T00:38:38;6.38;;;5.35;;
6422;SDS011;3244;42.708;23.288;2023-06-14T00:41:05;5.43;;;5.07;;
6422;SDS011;3244;42.708;23.288;2023-06-14T00:43:33;8.50;;;5.72;;
6422;SDS011;3244;42.708;23.288;2023-06-14T00:46:00;5.47;;;5.07;;
6422;SDS011;3244;42.708;23.288;2023-06-14T00:48:27;5.30;;;5.00;;
6422;SDS011;3244;42.708;23.288;2023-06-14T00:50:55;6.25;;;5.85;;
6422;SDS011;3244;42.708;23.288;2023-06-14T00:53:23;5.38;;;4.78;;
6422;SDS011;3244;42.708;23.288;2023-06-14T00:55:50;6.15;;;5.72;;
6422;SDS011;3244;42.708;23.288;2023-06-14T00:58:17;5.90;;;5.40;;
6422;SDS011;3244;42.708;23.288;2023-06-14T01:00:45;6.20;;;5.75;;
6422;SDS011;3244;42.708;23.288;2023-06-14T01:03:12;5.45;;;5.15;;
6422;SDS011;3244;42.708;23.288;2023-06-14T01:05:44;5.78;;;5.35;;
6422;SDS011;3244;42.708;23.288;2023-06-14T01:08:14;8.23;;;5.97;;
6422;SDS011;3244;42.708;23.288;2023-06-14T01:10:51;5.45;;;5.15;;
6422;SDS011;3244;42.708;23.288;2023-06-14T01:13:24;5.90;;;5.40;;
6422;SDS011;3244;42.708;23.288;2023-06-14T01:15:56;5.95;;;5.45;;
6422;SDS011;3244;42.708;23.288;2023-06-14T01:18:23;5.85;;;5.45;;
6422;SDS011;3244;42.708;23.288;2023-06-14T01:20:51;6.25;;;5.68;;
6422;SDS011;3244;42.708;23.288;2023-06-14T01:23:21;7.00;;;6.50;;
6422;SDS011;3244;42.708;23.288;2023-06-14T01:25:49;6.70;;;6.30;;
6422;SDS011;3244;42.708;23.288;2023-06-14T01:28:19;6.50;;;6.20;;
6422;SDS011;3244;42.708;23.288;2023-06-14T01:30:46;6.70;;;6.13;;
6422;SDS011;3244;42.708;23.288;2023-06-14T01:33:19;7.38;;;6.65;;
6422;SDS011;3244;42.708;23.288;2023-06-14T01:35:48;6.22;;;5.78;;
6422;SDS011;3244;42.708;23.288;2023-06-14T01:38:17;5.70;;;5.40;;
6422;SDS011;3244;42.708;23.288;2023-06-14T01:40:48;6.78;;;6.28;;
6422;SDS011;3244;42.708;23.288;2023-06-14T01:43:16;7.95;;;5.88;;
6422;SDS011;3244;42.708;23.288;2023-06-14T01:45:44;6.80;;;6.40;;
6422;SDS011;3244;42.708;23.288;2023-06-14T01:48:13;5.72;;;5.43;;
6422;SDS011;3244;42.708;23.288;2023-06-14T01:50:41;7.00;;;6.50;;
6422;SDS011;3244;42.708;23.288;2023-06-14T01:53:07;6.32;;;5.88;;
6422;SDS011;3244;42.708;23.288;2023-06-14T01:55:35;5.75;;;5.45;;
6422;SDS011;3244;42.708;23.288;2023-06-14T01:58:04;6.43;;;6.13;;
6422;SDS011;3244;42.708;23.288;2023-06-14T02:00:31;7.13;;;6.47;;
6422;SDS011;3244;42.708;23.288;2023-06-14T02:02:58;6.20;;;5.90;;
6422;SDS011;3244;42.708;23.288;2023-06-14T02:05:25;7.13;;;5.80;;
6422;SDS011;3244;42.708;23.288;2023-06-14T02:07:51;7.10;;;6.05;;
6422;SDS011;3244;42.708;23.288;2023-06-14T02:10:20;7.60;;;6.50;;
6422;SDS011;3244;42.708;23.288;2023-06-14T02:12:47;6.70;;;6.15;;
6422;SDS011;3244;42.708;23.288;2023-06-14T02:15:15;6.95;;;6.35;;
6422;SDS011;3244;42.708;23.288;2023-06-14T02:17:43;6.45;;;5.93;;
6422;SDS011;3244;42.708;23.288;2023-06-14T02:20:10;6.32;;;5.82;;
6422;SDS011;3244;42.708;23.288;2023-06-14T02:22:37;6.65;;;5.45;;
6422;SDS011;3244;42.708;23.288;2023-06-14T02:25:04;5.95;;;5.45;;
6422;SDS011;3244;42.708;23.288;2023-06-14T02:27:31;5.95;;;5.65;;
6422;SDS011;3244;42.708;23.288;2023-06-14T02:29:58;6.13;;;5.78;;
6422;SDS011;3244;42.708;23.288;2023-06-14T02:32:27;5.75;;;5.22;;
6422;SDS011;3244;42.708;23.288;2023-06-14T02:34:53;6.78;;;6.10;;
6422;SDS011;3244;42.708;23.288;2023-06-14T02:37:20;6.63;;;5.95;;
6422;SDS011;3244;42.708;23.288;2023-06-14T02:39:47;8.10;;;5.88;;
6422;SDS011;3244;42.708;23.288;2023-06-14T02:42:13;6.97;;;6.38;;
6422;SDS011;3244;42.708;23.288;2023-06-14T02:44:40;6.22;;;5.82;;
6422;SDS011;3244;42.708;23.288;2023-06-14T02:47:08;7.68;;;5.80;;
6422;SDS011;3244;42.708;23.288;2023-06-14T02:49:36;6.18;;;5.78;;
6422;SDS011;3244;42.708;23.288;2023-06-14T02:52:03;7.20;;;6.57;;
6422;SDS011;3244;42.708;23.288;2023-06-14T02:54:31;6.15;;;5.75;;
6422;SDS011;3244;42.708;23.288;2023-06-14T02:56:58;7.38;;;5.78;;
6422;SDS011;3244;42.708;23.288;2023-06-14T02:59:24;10.35;;;5.97;;
6422;SDS011;3244;42.708;23.288;2023-06-14T03:01:51;6.10;;;5.50;;
6422;SDS011;3244;42.708;23.288;2023-06-14T03:04:18;6.68;;;5.90;;
6422;SDS011;3244;42.708;23.288;2023-06-14T03:06:46;6.53;;;5.95;;
6422;SDS011;3244;42.708;23.288;2023-06-14T03:09:15;6.60;;;6.13;;
6422;SDS011;3244;42.708;23.288;2023-06-14T03:11:42;6.93;;;6.32;;
6422;SDS011;3244;42.708;23.288;2023-06-14T03:14:08;7.20;;;5.68;;
6422;SDS011;3244;42.708;23.288;2023-06-14T03:16:36;6.13;;;5.70;;
6422;SDS011;3244;42.708;23.288;2023-06-14T03:19:03;7.00;;;5.28;;
6422;SDS011;3244;42.708;23.288;2023-06-14T03:21:30;5.70;;;5.32;;
6422;SDS011;3244;42.708;23.288;2023-06-14T03:23:58;6.95;;;6.25;;
6422;SDS011;3244;42.708;23.288;2023-06-14T03:26:25;5.97;;;5.43;;
6422;SDS011;3244;42.708;23.288;2023-06-14T03:28:52;14.68;;;13.43;;
6422;SDS011;3244;42.708;23.288;2023-06-14T03:31:19;11.95;;;10.95;;
6422;SDS011;3244;42.708;23.288;2023-06-14T03:33:46;6.90;;;6.43;;
6422;SDS011;3244;42.708;23.288;2023-06-14T03:36:13;6.68;;;5.82;;
6422;SDS011;3244;42.708;23.288;2023-06-14T03:38:40;6.85;;;6.35;;
6422;SDS011;3244;42.708;23.288;2023-06-14T03:41:08;6.47;;;4.97;;
6422;SDS011;3244;42.708;23.288;2023-06-14T03:43:34;6.22;;;5.80;;
6422;SDS011;3244;42.708;23.288;2023-06-14T03:46:02;5.75;;;5.35;;
6422;SDS011;3244;42.708;23.288;2023-06-14T03:48:29;6.88;;;4.97;;
6422;SDS011;3244;42.708;23.288;2023-06-14T03:50:55;5.18;;;4.88;;
6422;SDS011;3244;42.708;23.288;2023-06-14T03:53:23;6.20;;;5.57;;
6422;SDS011;3244;42.708;23.288;2023-06-14T03:55:49;5.72;;;5.15;;
6422;SDS011;3244;42.708;23.288;2023-06-14T03:58:18;7.93;;;5.35;;
6422;SDS011;3244;42.708;23.288;2023-06-14T04:00:45;19.08;;;14.70;;
6422;SDS011;3244;42.708;23.288;2023-06-14T04:03:13;20.90;;;15.82;;
6422;SDS011;3244;42.708;23.288;2023-06-14T04:05:40;7.13;;;6.53;;
6422;SDS011;3244;42.708;23.288;2023-06-14T04:08:08;8.02;;;6.22;;
6422;SDS011;3244;42.708;23.288;2023-06-14T04:10:35;6.28;;;5.03;;
6422;SDS011;3244;42.708;23.288;2023-06-14T04:13:02;6.43;;;6.03;;
6422;SDS011;3244;42.708;23.288;2023-06-14T04:15:31;6.10;;;5.55;;
6422;SDS011;3244;42.708;23.288;2023-06-14T04:17:57;5.88;;;5.47;;
6422;SDS011;3244;42.708;23.288;2023-06-14T04:20:24;6.63;;;6.22;;
6422;SDS011;3244;42.708;23.288;2023-06-14T04:22:51;6.35;;;5.55;;
6422;SDS011;3244;42.708;23.288;2023-06-14T04:25:18;5.75;;;5.32;;
6422;SDS011;3244;42.708;23.288;2023-06-14T04:27:45;8.35;;;6.10;;
6422;SDS011;3244;42.708;23.288;2023-06-14T04:30:12;9.52;;;7.93;;
6422;SDS011;3244;42.708;23.288;2023-06-14T04:32:40;38.58;;;27.40;;
6422;SDS011;3244;42.708;23.288;2023-06-14T04:35:08;27.85;;;21.55;;
6422;SDS011;3244;42.708;23.288;2023-06-14T04:37:35;9.55;;;8.65;;
6422;SDS011;3244;42.708;23.288;2023-06-14T04:40:05;5.95;;;5.45;;
6422;SDS011;3244;42.708;23.288;2023-06-14T04:42:33;5.30;;;4.90;;
6422;SDS011;3244;42.708;23.288;2023-06-14T04:45:02;6.45;;;4.65;;
6422;SDS011;3244;42.708;23.288;2023-06-14T04:47:29;8.95;;;5.30;;
6422;SDS011;3244;42.708;23.288;2023-06-14T04:49:57;5.80;;;5.30;;
6422;SDS011;3244;42.708;23.288;2023-06-14T04:52:25;5.85;;;5.05;;
6422;SDS011;3244;42.708;23.288;2023-06-14T04:54:54;5.85;;;4.50;;
6422;SDS011;3244;42.708;23.288;2023-06-14T04:57:21;20.70;;;16.00;;
6422;SDS011;3244;42.708;23.288;2023-06-14T04:59:50;16.80;;;14.82;;
6422;SDS011;3244;42.708;23.288;2023-06-14T05:02:20;7.72;;;6.88;;
6422;SDS011;3244;42.708;23.288;2023-06-14T05:04:48;5.20;;;4.80;;
6422;SDS011;3244;42.708;23.288;2023-06-14T05:07:16;5.05;;;4.72;;
6422;SDS011;3244;42.708;23.288;2023-06-14T05:09:43;5.05;;;4.63;;
6422;SDS011;3244;42.708;23.288;2023-06-14T05:12:10;5.13;;;4.65;;
6422;SDS011;3244;42.708;23.288;2023-06-14T05:14:37;5.68;;;5.28;;
6422;SDS011;3244;42.708;23.288;2023-06-14T05:17:04;4.78;;;4.47;;
6422;SDS011;3244;42.708;23.288;2023-06-14T05:19:32;4.65;;;4.38;;
6422;SDS011;3244;42.708;23.288;2023-06-14T05:21:58;5.53;;;5.13;;
6422;SDS011;3244;42.708;23.288;2023-06-14T05:24:26;5.70;;;5.40;;
6422;SDS011;3244;42.708;23.288;2023-06-14T05:26:54;7.80;;;5.30;;
6422;SDS011;3244;42.708;23.288;2023-06-14T05:29:21;5.70;;;5.30;;
6422;SDS011;3244;42.708;23.288;2023-06-14T05:31:48;7.13;;;6.53;;
6422;SDS011;3244;42.708;23.288;2023-06-14T05:34:15;6.30;;;5.68;;
6422;SDS011;3244;42.708;23.288;2023-06-14T05:36:41;7.15;;;6.50;;
6422;SDS011;3244;42.708;23.288;2023-06-14T05:39:08;9.40;;;5.97;;
6422;SDS011;3244;42.708;23.288;2023-06-14T05:41:36;7.68;;;7.07;;
6422;SDS011;3244;42.708;23.288;2023-06-14T05:44:03;7.65;;;7.00;;
6422;SDS011;3244;42.708;23.288;2023-06-14T05:46:30;8.05;;;7.55;;
6422;SDS011;3244;42.708;23.288;2023-06-14T05:48:57;8.75;;;8.02;;
6422;SDS011;3244;42.708;23.288;2023-06-14T05:51:23;9.32;;;8.57;;
6422;SDS011;3244;42.708;23.288;2023-06-14T05:53:51;12.60;;;11.35;;
6422;SDS011;3244;42.708;23.288;2023-06-14T05:56:18;10.13;;;9.18;;
6422;SDS011;3244;42.708;23.288;2023-06-14T05:58:46;9.90;;;9.10;;
6422;SDS011;3244;42.708;23.288;2023-06-14T06:01:13;8.80;;;8.20;;
6422;SDS011;3244;42.708;23.288;2023-06-14T06:03:41;11.57;;;9.00;;
6422;SDS011;3244;42.708;23.288;2023-06-14T06:06:11;10.45;;;9.30;;
6422;SDS011;3244;42.708;23.288;2023-06-14T06:08:37;19.45;;;11.65;;
6422;SDS011;3244;42.708;23.288;2023-06-14T06:11:05;18.80;;;12.20;;
6422;SDS011;3244;42.708;23.288;2023-06-14T06:13:32;34.28;;;15.95;;
6422;SDS011;3244;42.708;23.288;2023-06-14T06:16:01;12.05;;;10.10;;
6422;SDS011;3244;42.708;23.288;2023-06-14T06:18:28;16.88;;;10.88;;
6422;SDS011;3244;42.708;23.288;2023-06-14T06:20:55;28.20;;;14.80;;
6422;SDS011;3244;42.708;23.288;2023-06-14T06:23:22;21.60;;;12.32;;
6422;SDS011;3244;42.708;23.288;2023-06-14T06:25:48;13.63;;;9.90;;
6422;SDS011;3244;42.708;23.288;2023-06-14T06:28:15;13.13;;;10.57;;
6422;SDS011;3244;42.708;23.288;2023-06-14T06:30:42;11.38;;;8.52;;
6422;SDS011;3244;42.708;23.288;2023-06-14T06:33:10;9.82;;;8.65;;
6422;SDS011;3244;42.708;23.288;2023-06-14T06:35:38;8.75;;;8.15;;
6422;SDS011;3244;42.708;23.288;2023-06-14T06:38:04;10.38;;;7.85;;
6422;SDS011;3244;42.708;23.288;2023-06-14T06:40:31;8.65;;;7.72;;
6422;SDS011;3244;42.708;23.288;2023-06-14T06:42:58;8.07;;;7.38;;
6422;SDS011;3244;42.708;23.288;2023-06-14T06:45:25;8.68;;;7.72;;
6422;SDS011;3244;42.708;23.288;2023-06-14T06:47:52;8.75;;;8.07;;
6422;SDS011;3244;42.708;23.288;2023-06-14T06:50:20;9.15;;;7.45;;
6422;SDS011;3244;42.708;23.288;2023-06-14T06:52:48;10.35;;;8.13;;
6422;SDS011;3244;42.708;23.288;2023-06-14T06:55:15;10.57;;;9.48;;
6422;SDS011;3244;42.708;23.288;2023-06-14T06:57:43;8.65;;;8.05;;
6422;SDS011;3244;42.708;23.288;2023-06-14T07:00:10;7.53;;;6.93;;
6422;SDS011;3244;42.708;23.288;2023-06-14T07:02:37;7.68;;;7.15;;
6422;SDS011;3244;42.708;23.288;2023-06-14T07:05:04;5.80;;;5.47;;
6422;SDS011;3244;42.708;23.288;2023-06-14T07:07:33;10.45;;;8.00;;
6422;SDS011;3244;42.708;23.288;2023-06-14T07:10:00;9.40;;;8.82;;
6422;SDS011;3244;42.708;23.288;2023-06-14T07:12:29;10.65;;;9.55;;
6422;SDS011;3244;42.708;23.288;2023-06-14T07:14:56;10.52;;;9.35;;
6422;SDS011;3244;42.708;23.288;2023-06-14T07:17:23;11.77;;;9.63;;
6422;SDS011;3244;42.708;23.288;2023-06-14T07:19:50;9.73;;;8.77;;
6422;SDS011;3244;42.708;23.288;2023-06-14T07:22:18;11.05;;;8.65;;
6422;SDS011;3244;42.708;23.288;2023-06-14T07:24:46;10.25;;;9.27;;
6422;SDS011;3244;42.708;23.288;2023-06-14T07:27:13;11.25;;;10.32;;
6422;SDS011;3244;42.708;23.288;2023-06-14T07:29:39;11.38;;;10.35;;
6422;SDS011;3244;42.708;23.288;2023-06-14T07:32:06;12.13;;;9.82;;
6422;SDS011;3244;42.708;23.288;2023-06-14T07:34:33;11.55;;;10.73;;
6422;SDS011;3244;42.708;23.288;2023-06-14T07:37:00;12.63;;;11.32;;
6422;SDS011;3244;42.708;23.288;2023-06-14T07:39:27;11.90;;;10.55;;
6422;SDS011;3244;42.708;23.288;2023-06-14T07:41:55;12.13;;;9.85;;
6422;SDS011;3244;42.708;23.288;2023-06-14T07:44:22;10.43;;;9.55;;
6422;SDS011;3244;42.708;23.288;2023-06-14T07:46:48;11.73;;;10.63;;
6422;SDS011;3244;42.708;23.288;2023-06-14T07:49:15;11.90;;;10.68;;
6422;SDS011;3244;42.708;23.288;2023-06-14T07:51:42;12.80;;;11.65;;
6422;SDS011;3244;42.708;23.288;2023-06-14T07:54:09;14.25;;;12.68;;
6422;SDS011;3244;42.708;23.288;2023-06-14T07:56:36;16.95;;;10.85;;
6422;SDS011;3244;42.708;23.288;2023-06-14T07:59:04;15.38;;;12.20;;
6422;SDS011;3244;42.708;23.288;2023-06-14T08:01:32;12.60;;;11.40;;
6422;SDS011;3244;42.708;23.288;2023-06-14T08:03:59;14.02;;;11.25;;
6422;SDS011;3244;42.708;23.288;2023-06-14T08:06:26;11.63;;;10.70;;
6422;SDS011;3244;42.708;23.288;2023-06-14T08:08:52;12.13;;;11.15;;
6422;SDS011;3244;42.708;23.288;2023-06-14T08:11:19;10.95;;;9.95;;
6422;SDS011;3244;42.708;23.288;2023-06-14T08:13:46;11.60;;;9.98;;
6422;SDS011;3244;42.708;23.288;2023-06-14T08:16:14;11.57;;;10.45;;
6422;SDS011;3244;42.708;23.288;2023-06-14T08:18:40;12.18;;;10.50;;
6422;SDS011;3244;42.708;23.288;2023-06-14T08:21:07;11.70;;;10.48;;
6422;SDS011;3244;42.708;23.288;2023-06-14T08:23:34;10.95;;;10.02;;
6422;SDS011;3244;42.708;23.288;2023-06-14T08:26:01;13.40;;;9.80;;
6422;SDS011;3244;42.708;23.288;2023-06-14T08:28:29;12.48;;;10.13;;
6422;SDS011;3244;42.708;23.288;2023-06-14T08:30:55;13.15;;;10.45;;
6422;SDS011;3244;42.708;23.288;2023-06-14T08:33:23;9.93;;;9.10;;
6422;SDS011;3244;42.708;23.288;2023-06-14T08:35:50;10.40;;;9.35;;
6422;SDS011;3244;42.708;23.288;2023-06-14T08:38:17;11.73;;;9.40;;
6422;SDS011;3244;42.708;23.288;2023-06-14T08:40:43;9.07;;;8.43;;
6422;SDS011;3244;42.708;23.288;2023-06-14T08:43:14;10.23;;;9.55;;
6422;SDS011;3244;42.708;23.288;2023-06-14T08:45:40;10.82;;;9.98;;
6422;SDS011;3244;42.708;23.288;2023-06-14T08:48:07;9.90;;;8.35;;
6422;SDS011;3244;42.708;23.288;2023-06-14T08:50:36;9.02;;;8.32;;
6422;SDS011;3244;42.708;23.288;2023-06-14T08:53:07;9.23;;;8.45;;
6422;SDS011;3244;42.708;23.288;2023-06-14T08:55:36;8.98;;;8.38;;
6422;SDS011;3244;42.708;23.288;2023-06-14T08:58:04;9.35;;;8.55;;
6422;SDS011;3244;42.708;23.288;2023-06-14T09:00:34;9.18;;;7.97;;
6422;SDS011;3244;42.708;23.288;2023-06-14T09:03:03;8.93;;;8.25;;
6422;SDS011;3244;42.708;23.288;2023-06-14T09:05:39;9.00;;;8.15;;
6422;SDS011;3244;42.708;23.288;2023-06-14T09:08:06;11.13;;;8.43;;
6422;SDS011;3244;42.708;23.288;2023-06-14T09:10:33;9.48;;;7.57;;
6422;SDS011;3244;42.708;23.288;2023-06-14T09:13:02;10.80;;;9.52;;
6422;SDS011;3244;42.708;23.288;2023-06-14T09:15:29;10.35;;;9.27;;
6422;SDS011;3244;42.708;23.288;2023-06-14T09:17:56;10.23;;;9.43;;
6422;SDS011;3244;42.708;23.288;2023-06-14T09:20:23;13.43;;;11.00;;
6422;SDS011;3244;42.708;23.288;2023-06-14T09:22:53;10.45;;;9.75;;
6422;SDS011;3244;42.708;23.288;2023-06-14T09:25:19;10.65;;;9.57;;
6422;SDS011;3244;42.708;23.288;2023-06-14T09:27:47;10.90;;;9.35;;
6422;SDS011;3244;42.708;23.288;2023-06-14T09:30:14;9.88;;;9.00;;
6422;SDS011;3244;42.708;23.288;2023-06-14T09:32:41;8.88;;;8.02;;
6422;SDS011;3244;42.708;23.288;2023-06-14T09:35:08;9.93;;;9.18;;
6422;SDS011;3244;42.708;23.288;2023-06-14T09:37:35;9.43;;;8.70;;
6422;SDS011;3244;42.708;23.288;2023-06-14T09:40:05;8.93;;;8.15;;
6422;SDS011;3244;42.708;23.288;2023-06-14T09:42:33;11.25;;;9.30;;
6422;SDS011;3244;42.708;23.288;2023-06-14T09:45:00;10.10;;;9.27;;
6422;SDS011;3244;42.708;23.288;2023-06-14T09:47:28;8.93;;;8.32;;
6422;SDS011;3244;42.708;23.288;2023-06-14T09:49:55;9.98;;;9.20;;
6422;SDS011;3244;42.708;23.288;2023-06-14T09:52:22;10.02;;;9.23;;
6422;SDS011;3244;42.708;23.288;2023-06-14T09:54:48;10.80;;;9.50;;
6422;SDS011;3244;42.708;23.288;2023-06-14T09:57:22;10.90;;;9.95;;
6422;SDS011;3244;42.708;23.288;2023-06-14T09:59:52;12.68;;;10.52;;
6422;SDS011;3244;42.708;23.288;2023-06-14T10:02:24;10.75;;;9.75;;
6422;SDS011;3244;42.708;23.288;2023-06-14T10:04:54;10.60;;;9.25;;
6422;SDS011;3244;42.708;23.288;2023-06-14T10:07:26;11.20;;;10.10;;
6422;SDS011;3244;42.708;23.288;2023-06-14T10:09:56;12.02;;;10.68;;
6422;SDS011;3244;42.708;23.288;2023-06-14T10:12:25;14.43;;;10.85;;
6422;SDS011;3244;42.708;23.288;2023-06-14T10:14:52;12.30;;;11.30;;
6422;SDS011;3244;42.708;23.288;2023-06-14T10:17:22;10.60;;;9.73;;
6422;SDS011;3244;42.708;23.288;2023-06-14T10:19:55;10.93;;;10.13;;
6422;SDS011;3244;42.708;23.288;2023-06-14T10:22:29;11.43;;;10.30;;
6422;SDS011;3244;42.708;23.288;2023-06-14T10:24:58;12.18;;;10.75;;
6422;SDS011;3244;42.708;23.288;2023-06-14T10:27:27;10.93;;;10.10;;
6422;SDS011;3244;42.708;23.288;2023-06-14T10:30:02;11.20;;;9.65;;
6422;SDS011;3244;42.708;23.288;2023-06-14T10:32:31;10.88;;;10.02;;
6422;SDS011;3244;42.708;23.288;2023-06-14T10:34:59;11.77;;;10.98;;
6422;SDS011;3244;42.708;23.288;2023-06-14T10:37:26;10.25;;;9.55;;
6422;SDS011;3244;42.708;23.288;2023-06-14T10:39:53;11.00;;;10.10;;
6422;SDS011;3244;42.708;23.288;2023-06-14T10:42:20;12.07;;;10.93;;
6422;SDS011;3244;42.708;23.288;2023-06-14T10:44:50;11.88;;;10.85;;
6422;SDS011;3244;42.708;23.288;2023-06-14T10:47:24;8.48;;;7.78;;
6422;SDS011;3244;42.708;23.288;2023-06-14T10:49:53;11.38;;;10.48;;
6422;SDS011;3244;42.708;23.288;2023-06-14T10:52:22;9.77;;;9.02;;
6422;SDS011;3244;42.708;23.288;2023-06-14T10:55:06;9.07;;;8.25;;
6422;SDS011;3244;42.708;23.288;2023-06-14T10:57:36;10.40;;;9.60;;
6422;SDS011;3244;42.708;23.288;2023-06-14T11:00:06;10.20;;;9.30;;
6422;SDS011;3244;42.708;23.288;2023-06-14T11:05:58;12.05;;;10.90;;
6422;SDS011;3244;42.708;23.288;2023-06-14T11:11:20;9.85;;;8.95;;
6422;SDS011;3244;42.708;23.288;2023-06-14T11:13:48;10.52;;;9.57;;
6422;SDS011;3244;42.708;23.288;2023-06-14T11:16:17;11.60;;;10.55;;
6422;SDS011;3244;42.708;23.288;2023-06-14T11:18:45;9.77;;;9.07;;
6422;SDS011;3244;42.708;23.288;2023-06-14T11:21:15;9.32;;;8.73;;
6422;SDS011;3244;42.708;23.288;2023-06-14T11:23:43;11.05;;;10.15;;
6422;SDS011;3244;42.708;23.288;2023-06-14T11:26:15;11.13;;;10.13;;
6422;SDS011;3244;42.708;23.288;2023-06-14T11:28:42;11.35;;;9.50;;
6422;SDS011;3244;42.708;23.288;2023-06-14T11:31:08;9.95;;;9.00;;
6422;SDS011;3244;42.708;23.288;2023-06-14T11:33:37;13.18;;;11.90;;
6422;SDS011;3244;42.708;23.288;2023-06-14T11:36:04;12.52;;;10.95;;
6422;SDS011;3244;42.708;23.288;2023-06-14T11:38:34;11.57;;;10.65;;
6422;SDS011;3244;42.708;23.288;2023-06-14T11:41:02;11.48;;;10.32;;
6422;SDS011;3244;42.708;23.288;2023-06-14T11:43:28;12.05;;;10.95;;
6422;SDS011;3244;42.708;23.288;2023-06-14T11:45:57;9.52;;;8.85;;
6422;SDS011;3244;42.708;23.288;2023-06-14T11:48:36;10.65;;;9.48;;
6422;SDS011;3244;42.708;23.288;2023-06-14T11:51:04;14.25;;;9.98;;
6422;SDS011;3244;42.708;23.288;2023-06-14T11:53:30;11.07;;;10.10;;
6422;SDS011;3244;42.708;23.288;2023-06-14T11:55:57;9.13;;;8.35;;
6422;SDS011;3244;42.708;23.288;2023-06-14T11:58:25;8.65;;;7.95;;
6422;SDS011;3244;42.708;23.288;2023-06-14T12:00:52;8.75;;;8.10;;
6422;SDS011;3244;42.708;23.288;2023-06-14T12:03:22;8.80;;;8.10;;
6422;SDS011;3244;42.708;23.288;2023-06-14T12:05:51;8.55;;;7.85;;
6422;SDS011;3244;42.708;23.288;2023-06-14T12:08:31;10.27;;;9.35;;
6422;SDS011;3244;42.708;23.288;2023-06-14T12:11:03;8.57;;;7.88;;
6422;SDS011;3244;42.708;23.288;2023-06-14T12:13:30;8.32;;;7.82;;
6422;SDS011;3244;42.708;23.288;2023-06-14T12:15:57;9.82;;;8.45;;
6422;SDS011;3244;42.708;23.288;2023-06-14T12:18:31;8.50;;;7.90;;
6422;SDS011;3244;42.708;23.288;2023-06-14T12:21:00;14.15;;;8.40;;
6422;SDS011;3244;42.708;23.288;2023-06-14T12:23:42;7.68;;;7.25;;
6422;SDS011;3244;42.708;23.288;2023-06-14T12:26:09;7.65;;;7.15;;
6422;SDS011;3244;42.708;23.288;2023-06-14T12:28:39;9.35;;;8.00;;
6422;SDS011;3244;42.708;23.288;2023-06-14T12:31:07;8.50;;;7.80;;
6422;SDS011;3244;42.708;23.288;2023-06-14T12:33:33;7.93;;;7.32;;
6422;SDS011;3244;42.708;23.288;2023-06-14T12:36:04;7.40;;;7.00;;
6422;SDS011;3244;42.708;23.288;2023-06-14T12:38:32;11.18;;;7.88;;
6422;SDS011;3244;42.708;23.288;2023-06-14T12:40:59;7.95;;;7.35;;
6422;SDS011;3244;42.708;23.288;2023-06-14T12:43:25;10.05;;;8.27;;
6422;SDS011;3244;42.708;23.288;2023-06-14T12:45:52;9.70;;;8.75;;
6422;SDS011;3244;42.708;23.288;2023-06-14T12:48:19;8.07;;;7.47;;
6422;SDS011;3244;42.708;23.288;2023-06-14T12:50:47;6.72;;;6.32;;
6422;SDS011;3244;42.708;23.288;2023-06-14T12:53:15;8.77;;;8.02;;
6422;SDS011;3244;42.708;23.288;2023-06-14T12:55:42;7.05;;;6.55;;
6422;SDS011;3244;42.708;23.288;2023-06-14T12:58:08;9.45;;;8.63;;
6422;SDS011;3244;42.708;23.288;2023-06-14T13:00:37;7.30;;;6.88;;
6422;SDS011;3244;42.708;23.288;2023-06-14T13:03:04;7.10;;;6.50;;
6422;SDS011;3244;42.708;23.288;2023-06-14T13:05:30;8.40;;;7.63;;
6422;SDS011;3244;42.708;23.288;2023-06-14T13:07:58;8.45;;;7.07;;
6422;SDS011;3244;42.708;23.288;2023-06-14T13:10:26;6.72;;;6.30;;
6422;SDS011;3244;42.708;23.288;2023-06-14T13:12:53;7.82;;;7.13;;
6422;SDS011;3244;42.708;23.288;2023-06-14T13:15:20;7.80;;;6.93;;
6422;SDS011;3244;42.708;23.288;2023-06-14T13:17:46;7.05;;;6.60;;
6422;SDS011;3244;42.708;23.288;2023-06-14T13:20:14;6.70;;;6.03;;
6422;SDS011;3244;42.708;23.288;2023-06-14T13:22:41;10.10;;;6.57;;
6422;SDS011;3244;42.708;23.288;2023-06-14T13:25:08;6.13;;;5.72;;
6422;SDS011;3244;42.708;23.288;2023-06-14T13:27:36;6.90;;;6.35;;
6422;SDS011;3244;42.708;23.288;2023-06-14T13:30:04;8.10;;;6.47;;
6422;SDS011;3244;42.708;23.288;2023-06-14T13:32:31;7.28;;;6.78;;
6422;SDS011;3244;42.708;23.288;2023-06-14T13:34:58;7.13;;;6.60;;
6422;SDS011;3244;42.708;23.288;2023-06-14T13:37:25;7.03;;;6.53;;
6422;SDS011;3244;42.708;23.288;2023-06-14T13:39:51;6.20;;;5.90;;
6422;SDS011;3244;42.708;23.288;2023-06-14T13:42:18;8.02;;;6.38;;
6422;SDS011;3244;42.708;23.288;2023-06-14T13:44:46;6.80;;;5.90;;
6422;SDS011;3244;42.708;23.288;2023-06-14T13:47:13;7.45;;;6.95;;
6422;SDS011;3244;42.708;23.288;2023-06-14T13:49:40;7.50;;;6.90;;
6422;SDS011;3244;42.708;23.288;2023-06-14T13:52:06;11.18;;;6.72;;
6422;SDS011;3244;42.708;23.288;2023-06-14T13:54:33;7.47;;;6.90;;
6422;SDS011;3244;42.708;23.288;2023-06-14T13:57:01;8.70;;;7.90;;
6422;SDS011;3244;42.708;23.288;2023-06-14T13:59:27;8.40;;;7.70;;
6422;SDS011;3244;42.708;23.288;2023-06-14T14:01:55;7.60;;;6.90;;
6422;SDS011;3244;42.708;23.288;2023-06-14T14:04:22;7.82;;;7.22;;
6422;SDS011;3244;42.708;23.288;2023-06-14T14:06:49;7.90;;;7.20;;
6422;SDS011;3244;42.708;23.288;2023-06-14T14:09:15;7.80;;;7.10;;
6422;SDS011;3244;42.708;23.288;2023-06-14T14:11:42;7.20;;;6.70;;
6422;SDS011;3244;42.708;23.288;2023-06-14T14:14:09;7.88;;;7.28;;
6422;SDS011;3244;42.708;23.288;2023-06-14T14:16:36;7.90;;;7.30;;
6422;SDS011;3244;42.708;23.288;2023-06-14T14:19:04;8.32;;;7.53;;
6422;SDS011;3244;42.708;23.288;2023-06-14T14:21:31;7.35;;;6.85;;
6422;SDS011;3244;42.708;23.288;2023-06-14T14:23:58;8.23;;;7.47;;
6422;SDS011;3244;42.708;23.288;2023-06-14T14:26:25;8.85;;;8.05;;
6422;SDS011;3244;42.708;23.288;2023-06-14T14:28:52;6.50;;;6.10;;
6422;SDS011;3244;42.708;23.288;2023-06-14T14:31:18;9.55;;;7.28;;
6422;SDS011;3244;42.708;23.288;2023-06-14T14:33:45;7.78;;;7.28;;
6422;SDS011;3244;42.708;23.288;2023-06-14T14:36:13;6.00;;;5.60;;
6422;SDS011;3244;42.708;23.288;2023-06-14T14:38:40;7.05;;;6.55;;
6422;SDS011;3244;42.708;23.288;2023-06-14T14:41:07;6.88;;;6.38;;
6422;SDS011;3244;42.708;23.288;2023-06-14T14:43:34;8.00;;;7.20;;
6422;SDS011;3244;42.708;23.288;2023-06-14T14:46:00;7.45;;;6.82;;
6422;SDS011;3244;42.708;23.288;2023-06-14T14:48:27;7.90;;;7.10;;
6422;SDS011;3244;42.708;23.288;2023-06-14T14:50:54;8.55;;;6.88;;
6422;SDS011;3244;42.708;23.288;2023-06-14T14:53:22;12.73;;;7.45;;
6422;SDS011;3244;42.708;23.288;2023-06-14T14:55:49;7.35;;;6.75;;
6422;SDS011;3244;42.708;23.288;2023-06-14T14:58:16;7.15;;;6.65;;
6422;SDS011;3244;42.708;23.288;2023-06-14T15:00:43;6.82;;;6.20;;
6422;SDS011;3244;42.708;23.288;2023-06-14T15:03:10;5.85;;;5.43;;
6422;SDS011;3244;42.708;23.288;2023-06-14T15:05:37;8.40;;;6.18;;